sensor_id;sensor_type;location;lat;lon;timestamp;P1;durP1;ratioP1;P2;durP2;ratioP2
15067;SDS011;7633;60.024;18.770;2023-04-12T00:00:29;9.30;;;6.73;;
15067;SDS011;7633;60.024;18.770;2023-04-12T00:03:00;12.00;;;8.23;;
15067;SDS011;7633;60.024;18.770;2023-04-12T00:05:27;9.53;;;7.07;;
15067;SDS011;7633;60.024;18.770;2023-04-12T00:07:53;9.07;;;6.73;;
15067;SDS011;7633;60.024;18.770;2023-04-12T00:10:19;7.50;;;6.70;;
15067;SDS011;7633;60.024;18.770;2023-04-12T00:12:45;10.13;;;6.93;;
15067;SDS011;7633;60.024;18.770;2023-04-12T00:15:11;8.80;;;7.60;;
15067;SDS011;7633;60.024;18.770;2023-04-12T00:17:36;10.80;;;7.57;;
15067;SDS011;7633;60.024;18.770;2023-04-12T00:20:02;9.30;;;7.23;;
15067;SDS011;7633;60.024;18.770;2023-04-12T00:22:31;9.43;;;6.73;;
15067;SDS011;7633;60.024;18.770;2023-04-12T00:24:57;12.53;;;7.00;;
15067;SDS011;7633;60.024;18.770;2023-04-12T00:27:22;9.77;;;7.23;;
15067;SDS011;7633;60.024;18.770;2023-04-12T00:29:47;9.87;;;7.20;;
15067;SDS011;7633;60.024;18.770;2023-04-12T00:32:13;7.83;;;6.53;;
15067;SDS011;7633;60.024;18.770;2023-04-12T00:34:39;8.83;;;6.77;;
15067;SDS011;7633;60.024;18.770;2023-04-12T00:37:05;7.43;;;6.70;;
15067;SDS011;7633;60.024;18.770;2023-04-12T00:39:30;11.00;;;7.73;;
15067;SDS011;7633;60.024;18.770;2023-04-12T00:41:56;9.93;;;8.07;;
15067;SDS011;7633;60.024;18.770;2023-04-12T00:44:22;9.47;;;7.80;;
15067;SDS011;7633;60.024;18.770;2023-04-12T00:46:48;10.53;;;7.73;;
15067;SDS011;7633;60.024;18.770;2023-04-12T00:49:13;12.10;;;8.17;;
15067;SDS011;7633;60.024;18.770;2023-04-12T00:51:39;12.10;;;8.87;;
15067;SDS011;7633;60.024;18.770;2023-04-12T00:54:06;11.20;;;8.67;;
15067;SDS011;7633;60.024;18.770;2023-04-12T00:56:32;10.67;;;8.63;;
15067;SDS011;7633;60.024;18.770;2023-04-12T00:58:58;11.43;;;7.93;;
15067;SDS011;7633;60.024;18.770;2023-04-12T01:01:23;9.03;;;6.77;;
15067;SDS011;7633;60.024;18.770;2023-04-12T01:03:49;8.90;;;7.60;;
15067;SDS011;7633;60.024;18.770;2023-04-12T01:09:22;9.50;;;7.20;;
15067;SDS011;7633;60.024;18.770;2023-04-12T01:15:06;8.73;;;6.93;;
15067;SDS011;7633;60.024;18.770;2023-04-12T01:20:38;10.17;;;6.50;;
15067;SDS011;7633;60.024;18.770;2023-04-12T01:23:16;11.93;;;7.37;;
15067;SDS011;7633;60.024;18.770;2023-04-12T01:26:08;9.57;;;6.73;;
15067;SDS011;7633;60.024;18.770;2023-04-12T01:28:40;8.33;;;7.13;;
15067;SDS011;7633;60.024;18.770;2023-04-12T01:31:07;8.07;;;7.00;;
15067;SDS011;7633;60.024;18.770;2023-04-12T01:33:35;8.93;;;7.27;;
15067;SDS011;7633;60.024;18.770;2023-04-12T01:36:38;8.33;;;6.83;;
15067;SDS011;7633;60.024;18.770;2023-04-12T01:38:57;8.67;;;6.73;;
15067;SDS011;7633;60.024;18.770;2023-04-12T01:41:23;9.03;;;7.03;;
15067;SDS011;7633;60.024;18.770;2023-04-12T01:43:49;8.37;;;6.80;;
15067;SDS011;7633;60.024;18.770;2023-04-12T01:46:17;8.60;;;6.77;;
15067;SDS011;7633;60.024;18.770;2023-04-12T01:48:44;8.57;;;7.33;;
15067;SDS011;7633;60.024;18.770;2023-04-12T01:51:21;8.80;;;6.80;;
15067;SDS011;7633;60.024;18.770;2023-04-12T01:56:18;7.50;;;6.70;;
15067;SDS011;7633;60.024;18.770;2023-04-12T01:58:47;8.87;;;6.33;;
15067;SDS011;7633;60.024;18.770;2023-04-12T02:01:18;10.23;;;6.80;;
15067;SDS011;7633;60.024;18.770;2023-04-12T02:03:46;9.60;;;6.97;;
15067;SDS011;7633;60.024;18.770;2023-04-12T02:06:19;9.17;;;6.23;;
15067;SDS011;7633;60.024;18.770;2023-04-12T02:08:46;7.33;;;5.90;;
15067;SDS011;7633;60.024;18.770;2023-04-12T02:11:12;9.63;;;5.73;;
15067;SDS011;7633;60.024;18.770;2023-04-12T02:13:39;8.73;;;5.87;;
15067;SDS011;7633;60.024;18.770;2023-04-12T02:16:04;9.83;;;6.20;;
15067;SDS011;7633;60.024;18.770;2023-04-12T02:18:33;7.23;;;5.43;;
15067;SDS011;7633;60.024;18.770;2023-04-12T02:21:04;5.33;;;4.73;;
15067;SDS011;7633;60.024;18.770;2023-04-12T02:23:31;9.57;;;5.23;;
15067;SDS011;7633;60.024;18.770;2023-04-12T02:25:57;6.63;;;5.13;;
15067;SDS011;7633;60.024;18.770;2023-04-12T02:28:23;7.03;;;5.53;;
15067;SDS011;7633;60.024;18.770;2023-04-12T02:30:49;8.27;;;5.93;;
15067;SDS011;7633;60.024;18.770;2023-04-12T02:33:19;6.67;;;5.57;;
15067;SDS011;7633;60.024;18.770;2023-04-12T02:35:51;8.67;;;5.57;;
15067;SDS011;7633;60.024;18.770;2023-04-12T02:38:16;7.77;;;5.60;;
15067;SDS011;7633;60.024;18.770;2023-04-12T02:40:41;8.37;;;5.17;;
15067;SDS011;7633;60.024;18.770;2023-04-12T02:43:07;6.53;;;5.30;;
15067;SDS011;7633;60.024;18.770;2023-04-12T02:45:33;7.23;;;5.40;;
15067;SDS011;7633;60.024;18.770;2023-04-12T02:48:00;8.17;;;5.40;;
15067;SDS011;7633;60.024;18.770;2023-04-12T02:50:27;7.07;;;5.70;;
15067;SDS011;7633;60.024;18.770;2023-04-12T02:52:53;7.20;;;5.60;;
15067;SDS011;7633;60.024;18.770;2023-04-12T02:55:18;8.07;;;5.57;;
15067;SDS011;7633;60.024;18.770;2023-04-12T02:57:44;7.00;;;5.17;;
15067;SDS011;7633;60.024;18.770;2023-04-12T03:00:12;5.43;;;4.60;;
15067;SDS011;7633;60.024;18.770;2023-04-12T03:02:37;7.73;;;5.43;;
15067;SDS011;7633;60.024;18.770;2023-04-12T03:05:03;6.83;;;5.40;;
15067;SDS011;7633;60.024;18.770;2023-04-12T03:07:29;9.10;;;6.50;;
15067;SDS011;7633;60.024;18.770;2023-04-12T03:09:54;7.17;;;5.93;;
15067;SDS011;7633;60.024;18.770;2023-04-12T03:12:20;8.93;;;6.23;;
15067;SDS011;7633;60.024;18.770;2023-04-12T03:14:45;9.27;;;6.00;;
15067;SDS011;7633;60.024;18.770;2023-04-12T03:17:10;8.57;;;6.30;;
15067;SDS011;7633;60.024;18.770;2023-04-12T03:19:36;7.30;;;5.27;;
15067;SDS011;7633;60.024;18.770;2023-04-12T03:22:04;8.00;;;6.50;;
15067;SDS011;7633;60.024;18.770;2023-04-12T03:24:30;8.53;;;5.53;;
15067;SDS011;7633;60.024;18.770;2023-04-12T03:27:02;7.07;;;5.90;;
15067;SDS011;7633;60.024;18.770;2023-04-12T03:29:28;12.33;;;6.47;;
15067;SDS011;7633;60.024;18.770;2023-04-12T03:31:53;10.50;;;6.87;;
15067;SDS011;7633;60.024;18.770;2023-04-12T03:34:20;8.67;;;7.10;;
15067;SDS011;7633;60.024;18.770;2023-04-12T03:36:45;8.10;;;6.13;;
15067;SDS011;7633;60.024;18.770;2023-04-12T03:39:11;7.37;;;5.73;;
15067;SDS011;7633;60.024;18.770;2023-04-12T03:41:36;8.10;;;6.20;;
15067;SDS011;7633;60.024;18.770;2023-04-12T03:44:02;8.37;;;6.77;;
15067;SDS011;7633;60.024;18.770;2023-04-12T03:46:27;10.67;;;6.07;;
15067;SDS011;7633;60.024;18.770;2023-04-12T03:48:53;7.90;;;6.23;;
15067;SDS011;7633;60.024;18.770;2023-04-12T03:51:18;8.93;;;6.63;;
15067;SDS011;7633;60.024;18.770;2023-04-12T03:53:46;7.97;;;5.73;;
15067;SDS011;7633;60.024;18.770;2023-04-12T03:56:11;9.23;;;6.87;;
15067;SDS011;7633;60.024;18.770;2023-04-12T03:58:37;8.73;;;6.57;;
15067;SDS011;7633;60.024;18.770;2023-04-12T04:01:02;7.97;;;6.43;;
15067;SDS011;7633;60.024;18.770;2023-04-12T04:03:30;11.07;;;7.80;;
15067;SDS011;7633;60.024;18.770;2023-04-12T04:05:59;11.00;;;7.23;;
15067;SDS011;7633;60.024;18.770;2023-04-12T04:08:24;8.47;;;6.83;;
15067;SDS011;7633;60.024;18.770;2023-04-12T04:10:50;12.93;;;6.57;;
15067;SDS011;7633;60.024;18.770;2023-04-12T04:13:15;12.90;;;8.17;;
15067;SDS011;7633;60.024;18.770;2023-04-12T04:15:41;9.00;;;7.13;;
15067;SDS011;7633;60.024;18.770;2023-04-12T04:18:06;10.23;;;7.57;;
15067;SDS011;7633;60.024;18.770;2023-04-12T04:20:31;9.53;;;7.13;;
15067;SDS011;7633;60.024;18.770;2023-04-12T04:22:57;10.30;;;7.37;;
15067;SDS011;7633;60.024;18.770;2023-04-12T04:25:22;9.20;;;6.63;;
15067;SDS011;7633;60.024;18.770;2023-04-12T04:27:57;9.83;;;7.53;;
15067;SDS011;7633;60.024;18.770;2023-04-12T04:30:23;12.93;;;7.80;;
15067;SDS011;7633;60.024;18.770;2023-04-12T04:32:49;12.97;;;7.87;;
15067;SDS011;7633;60.024;18.770;2023-04-12T04:35:14;7.83;;;6.77;;
15067;SDS011;7633;60.024;18.770;2023-04-12T04:37:41;11.83;;;8.20;;
15067;SDS011;7633;60.024;18.770;2023-04-12T04:40:08;10.30;;;7.97;;
15067;SDS011;7633;60.024;18.770;2023-04-12T04:42:33;8.63;;;7.40;;
15067;SDS011;7633;60.024;18.770;2023-04-12T04:44:59;10.27;;;7.93;;
15067;SDS011;7633;60.024;18.770;2023-04-12T04:47:28;10.07;;;7.13;;
15067;SDS011;7633;60.024;18.770;2023-04-12T04:49:55;9.40;;;7.27;;
15067;SDS011;7633;60.024;18.770;2023-04-12T04:52:22;9.43;;;6.97;;
15067;SDS011;7633;60.024;18.770;2023-04-12T04:54:47;11.50;;;7.67;;
15067;SDS011;7633;60.024;18.770;2023-04-12T04:57:12;8.60;;;7.17;;
15067;SDS011;7633;60.024;18.770;2023-04-12T04:59:38;9.20;;;7.43;;
15067;SDS011;7633;60.024;18.770;2023-04-12T05:02:04;8.73;;;7.13;;
15067;SDS011;7633;60.024;18.770;2023-04-12T05:04:29;9.40;;;7.30;;
15067;SDS011;7633;60.024;18.770;2023-04-12T05:06:55;8.87;;;6.83;;
15067;SDS011;7633;60.024;18.770;2023-04-12T05:09:20;10.93;;;7.70;;
15067;SDS011;7633;60.024;18.770;2023-04-12T05:11:46;8.57;;;7.43;;
15067;SDS011;7633;60.024;18.770;2023-04-12T05:14:11;11.10;;;8.17;;
15067;SDS011;7633;60.024;18.770;2023-04-12T05:16:37;8.67;;;6.70;;
15067;SDS011;7633;60.024;18.770;2023-04-12T05:19:02;9.17;;;7.73;;
15067;SDS011;7633;60.024;18.770;2023-04-12T05:21:27;9.30;;;7.47;;
15067;SDS011;7633;60.024;18.770;2023-04-12T05:23:53;8.70;;;7.03;;
15067;SDS011;7633;60.024;18.770;2023-04-12T05:26:18;8.23;;;6.83;;
15067;SDS011;7633;60.024;18.770;2023-04-12T05:28:43;8.20;;;6.93;;
15067;SDS011;7633;60.024;18.770;2023-04-12T05:31:09;11.77;;;7.97;;
15067;SDS011;7633;60.024;18.770;2023-04-12T05:33:37;10.53;;;8.00;;
15067;SDS011;7633;60.024;18.770;2023-04-12T05:36:02;8.57;;;6.80;;
15067;SDS011;7633;60.024;18.770;2023-04-12T05:38:28;9.83;;;6.27;;
15067;SDS011;7633;60.024;18.770;2023-04-12T05:40:53;7.07;;;6.37;;
15067;SDS011;7633;60.024;18.770;2023-04-12T05:43:18;7.50;;;6.70;;
15067;SDS011;7633;60.024;18.770;2023-04-12T05:45:44;8.03;;;7.07;;
15067;SDS011;7633;60.024;18.770;2023-04-12T05:48:09;8.97;;;6.77;;
15067;SDS011;7633;60.024;18.770;2023-04-12T05:50:35;8.27;;;6.73;;
15067;SDS011;7633;60.024;18.770;2023-04-12T05:53:00;9.17;;;6.80;;
15067;SDS011;7633;60.024;18.770;2023-04-12T05:55:26;8.33;;;6.97;;
15067;SDS011;7633;60.024;18.770;2023-04-12T05:57:52;6.87;;;6.23;;
15067;SDS011;7633;60.024;18.770;2023-04-12T06:00:18;8.20;;;6.90;;
15067;SDS011;7633;60.024;18.770;2023-04-12T06:02:45;7.57;;;6.30;;
15067;SDS011;7633;60.024;18.770;2023-04-12T06:05:11;6.97;;;5.80;;
15067;SDS011;7633;60.024;18.770;2023-04-12T06:07:40;6.93;;;5.63;;
15067;SDS011;7633;60.024;18.770;2023-04-12T06:10:12;8.07;;;6.33;;
15067;SDS011;7633;60.024;18.770;2023-04-12T06:12:38;6.97;;;6.27;;
15067;SDS011;7633;60.024;18.770;2023-04-12T06:15:03;6.30;;;5.57;;
15067;SDS011;7633;60.024;18.770;2023-04-12T06:17:29;6.13;;;5.53;;
15067;SDS011;7633;60.024;18.770;2023-04-12T06:19:55;6.97;;;6.10;;
15067;SDS011;7633;60.024;18.770;2023-04-12T06:22:20;6.83;;;6.07;;
15067;SDS011;7633;60.024;18.770;2023-04-12T06:24:45;7.00;;;6.30;;
15067;SDS011;7633;60.024;18.770;2023-04-12T06:27:11;6.87;;;5.80;;
15067;SDS011;7633;60.024;18.770;2023-04-12T06:29:36;7.07;;;5.10;;
15067;SDS011;7633;60.024;18.770;2023-04-12T06:32:01;6.23;;;5.60;;
15067;SDS011;7633;60.024;18.770;2023-04-12T06:34:27;7.90;;;5.60;;
15067;SDS011;7633;60.024;18.770;2023-04-12T06:36:52;6.00;;;5.50;;
15067;SDS011;7633;60.024;18.770;2023-04-12T06:39:17;5.93;;;5.33;;
15067;SDS011;7633;60.024;18.770;2023-04-12T06:41:42;6.73;;;6.03;;
15067;SDS011;7633;60.024;18.770;2023-04-12T06:44:08;7.37;;;6.13;;
15067;SDS011;7633;60.024;18.770;2023-04-12T06:46:34;9.50;;;6.83;;
15067;SDS011;7633;60.024;18.770;2023-04-12T06:48:59;6.97;;;5.80;;
15067;SDS011;7633;60.024;18.770;2023-04-12T06:51:24;6.47;;;5.80;;
15067;SDS011;7633;60.024;18.770;2023-04-12T06:53:50;5.97;;;5.37;;
15067;SDS011;7633;60.024;18.770;2023-04-12T06:56:15;6.30;;;5.60;;
15067;SDS011;7633;60.024;18.770;2023-04-12T06:58:40;6.77;;;6.00;;
15067;SDS011;7633;60.024;18.770;2023-04-12T07:01:06;6.20;;;5.57;;
15067;SDS011;7633;60.024;18.770;2023-04-12T07:03:32;5.77;;;5.17;;
15067;SDS011;7633;60.024;18.770;2023-04-12T07:05:58;6.03;;;5.50;;
15067;SDS011;7633;60.024;18.770;2023-04-12T07:08:31;6.00;;;5.40;;
15067;SDS011;7633;60.024;18.770;2023-04-12T07:10:56;6.43;;;5.33;;
15067;SDS011;7633;60.024;18.770;2023-04-12T07:13:22;6.60;;;5.83;;
15067;SDS011;7633;60.024;18.770;2023-04-12T07:15:47;5.87;;;5.30;;
15067;SDS011;7633;60.024;18.770;2023-04-12T07:18:13;6.17;;;4.93;;
15067;SDS011;7633;60.024;18.770;2023-04-12T07:20:38;5.97;;;5.37;;
15067;SDS011;7633;60.024;18.770;2023-04-12T07:23:04;5.83;;;5.23;;
15067;SDS011;7633;60.024;18.770;2023-04-12T07:25:29;6.63;;;6.03;;
15067;SDS011;7633;60.024;18.770;2023-04-12T07:27:54;6.07;;;5.23;;
15067;SDS011;7633;60.024;18.770;2023-04-12T07:30:20;6.40;;;5.00;;
15067;SDS011;7633;60.024;18.770;2023-04-12T07:32:45;5.77;;;4.90;;
15067;SDS011;7633;60.024;18.770;2023-04-12T07:35:10;5.30;;;4.80;;
15067;SDS011;7633;60.024;18.770;2023-04-12T07:37:36;5.67;;;5.17;;
15067;SDS011;7633;60.024;18.770;2023-04-12T07:40:01;6.20;;;5.30;;
15067;SDS011;7633;60.024;18.770;2023-04-12T07:42:27;5.67;;;5.03;;
15067;SDS011;7633;60.024;18.770;2023-04-12T07:44:52;6.57;;;5.13;;
15067;SDS011;7633;60.024;18.770;2023-04-12T07:47:17;5.80;;;5.30;;
15067;SDS011;7633;60.024;18.770;2023-04-12T07:49:43;5.57;;;5.03;;
15067;SDS011;7633;60.024;18.770;2023-04-12T07:52:08;5.77;;;5.20;;
15067;SDS011;7633;60.024;18.770;2023-04-12T07:54:34;5.28;;;4.78;;
15067;SDS011;7633;60.024;18.770;2023-04-12T07:57:00;5.50;;;5.00;;
15067;SDS011;7633;60.024;18.770;2023-04-12T07:59:27;6.53;;;4.77;;
15067;SDS011;7633;60.024;18.770;2023-04-12T08:01:52;5.23;;;4.67;;
15067;SDS011;7633;60.024;18.770;2023-04-12T08:04:18;5.43;;;4.93;;
15067;SDS011;7633;60.024;18.770;2023-04-12T08:06:43;5.25;;;4.75;;
15067;SDS011;7633;60.024;18.770;2023-04-12T08:09:09;5.43;;;4.83;;
15067;SDS011;7633;60.024;18.770;2023-04-12T08:11:34;5.03;;;4.60;;
15067;SDS011;7633;60.024;18.770;2023-04-12T08:14:00;5.55;;;5.05;;
15067;SDS011;7633;60.024;18.770;2023-04-12T08:16:25;7.43;;;4.70;;
15067;SDS011;7633;60.024;18.770;2023-04-12T08:18:51;4.47;;;4.07;;
15067;SDS011;7633;60.024;18.770;2023-04-12T08:21:17;5.20;;;4.70;;
15067;SDS011;7633;60.024;18.770;2023-04-12T08:23:42;6.20;;;5.00;;
15067;SDS011;7633;60.024;18.770;2023-04-12T08:26:08;5.97;;;5.00;;
15067;SDS011;7633;60.024;18.770;2023-04-12T08:28:33;5.65;;;4.97;;
15067;SDS011;7633;60.024;18.770;2023-04-12T08:30:59;4.95;;;4.50;;
15067;SDS011;7633;60.024;18.770;2023-04-12T08:33:25;5.35;;;4.85;;
15067;SDS011;7633;60.024;18.770;2023-04-12T08:35:50;4.93;;;4.53;;
15067;SDS011;7633;60.024;18.770;2023-04-12T08:38:17;5.45;;;4.95;;
15067;SDS011;7633;60.024;18.770;2023-04-12T08:40:42;5.00;;;4.50;;
15067;SDS011;7633;60.024;18.770;2023-04-12T08:43:08;4.97;;;4.38;;
15067;SDS011;7633;60.024;18.770;2023-04-12T08:45:35;5.88;;;4.63;;
15067;SDS011;7633;60.024;18.770;2023-04-12T08:48:01;5.10;;;4.57;;
15067;SDS011;7633;60.024;18.770;2023-04-12T08:50:27;5.82;;;4.85;;
15067;SDS011;7633;60.024;18.770;2023-04-12T08:52:53;5.78;;;5.03;;
15067;SDS011;7633;60.024;18.770;2023-04-12T08:55:19;6.35;;;5.03;;
15067;SDS011;7633;60.024;18.770;2023-04-12T08:57:45;5.10;;;4.60;;
15067;SDS011;7633;60.024;18.770;2023-04-12T09:00:12;5.57;;;5.07;;
15067;SDS011;7633;60.024;18.770;2023-04-12T09:02:38;4.97;;;4.47;;
15067;SDS011;7633;60.024;18.770;2023-04-12T09:05:07;4.97;;;4.50;;
15067;SDS011;7633;60.024;18.770;2023-04-12T09:07:34;5.93;;;4.88;;
15067;SDS011;7633;60.024;18.770;2023-04-12T09:09:59;6.28;;;5.20;;
15067;SDS011;7633;60.024;18.770;2023-04-12T09:12:25;5.60;;;5.10;;
15067;SDS011;7633;60.024;18.770;2023-04-12T09:15:13;5.85;;;5.35;;
15067;SDS011;7633;60.024;18.770;2023-04-12T09:17:37;5.50;;;5.00;;
15067;SDS011;7633;60.024;18.770;2023-04-12T09:22:42;5.38;;;4.68;;
15067;SDS011;7633;60.024;18.770;2023-04-12T09:25:13;5.10;;;4.70;;
15067;SDS011;7633;60.024;18.770;2023-04-12T09:27:48;6.47;;;5.30;;
15067;SDS011;7633;60.024;18.770;2023-04-12T09:30:14;5.72;;;5.22;;
15067;SDS011;7633;60.024;18.770;2023-04-12T09:32:40;5.53;;;5.05;;
15067;SDS011;7633;60.024;18.770;2023-04-12T09:35:06;6.13;;;5.57;;
15067;SDS011;7633;60.024;18.770;2023-04-12T09:37:32;5.53;;;5.03;;
15067;SDS011;7633;60.024;18.770;2023-04-12T09:40:07;5.68;;;5.18;;
15067;SDS011;7633;60.024;18.770;2023-04-12T09:42:33;6.10;;;5.60;;
15067;SDS011;7633;60.024;18.770;2023-04-12T09:44:59;6.28;;;5.65;;
15067;SDS011;7633;60.024;18.770;2023-04-12T09:47:35;6.97;;;6.32;;
15067;SDS011;7633;60.024;18.770;2023-04-12T09:50:01;6.30;;;5.70;;
15067;SDS011;7633;60.024;18.770;2023-04-12T09:52:33;6.63;;;6.03;;
15067;SDS011;7633;60.024;18.770;2023-04-12T09:54:59;5.90;;;5.35;;
15067;SDS011;7633;60.024;18.770;2023-04-12T09:57:24;6.85;;;5.68;;
15067;SDS011;7633;60.024;18.770;2023-04-12T09:59:50;5.53;;;5.03;;
15067;SDS011;7633;60.024;18.770;2023-04-12T10:02:17;6.25;;;5.68;;
15067;SDS011;7633;60.024;18.770;2023-04-12T10:04:43;6.15;;;5.65;;
15067;SDS011;7633;60.024;18.770;2023-04-12T10:07:10;6.60;;;6.05;;
15067;SDS011;7633;60.024;18.770;2023-04-12T10:09:39;6.80;;;6.20;;
15067;SDS011;7633;60.024;18.770;2023-04-12T10:12:05;7.50;;;6.68;;
15067;SDS011;7633;60.024;18.770;2023-04-12T10:14:31;6.97;;;6.30;;
15067;SDS011;7633;60.024;18.770;2023-04-12T10:16:58;6.50;;;5.90;;
15067;SDS011;7633;60.024;18.770;2023-04-12T10:19:24;6.20;;;5.70;;
15067;SDS011;7633;60.024;18.770;2023-04-12T10:21:50;8.45;;;5.93;;
15067;SDS011;7633;60.024;18.770;2023-04-12T10:24:15;6.20;;;5.70;;
15067;SDS011;7633;60.024;18.770;2023-04-12T10:26:41;6.05;;;5.55;;
15067;SDS011;7633;60.024;18.770;2023-04-12T10:29:21;5.63;;;5.13;;
15067;SDS011;7633;60.024;18.770;2023-04-12T10:31:46;5.93;;;5.40;;
15067;SDS011;7633;60.024;18.770;2023-04-12T10:34:12;6.35;;;5.75;;
15067;SDS011;7633;60.024;18.770;2023-04-12T10:36:56;5.57;;;5.07;;
15067;SDS011;7633;60.024;18.770;2023-04-12T10:42:16;6.07;;;5.28;;
15067;SDS011;7633;60.024;18.770;2023-04-12T10:44:42;5.75;;;5.30;;
15067;SDS011;7633;60.024;18.770;2023-04-12T10:47:08;6.07;;;5.53;;
15067;SDS011;7633;60.024;18.770;2023-04-12T10:49:33;6.30;;;5.70;;
15067;SDS011;7633;60.024;18.770;2023-04-12T10:56:50;6.07;;;5.57;;
15067;SDS011;7633;60.024;18.770;2023-04-12T10:59:16;5.97;;;5.47;;
15067;SDS011;7633;60.024;18.770;2023-04-12T11:02:06;5.43;;;4.65;;
15067;SDS011;7633;60.024;18.770;2023-04-12T11:04:27;5.90;;;5.30;;
15067;SDS011;7633;60.024;18.770;2023-04-12T11:14:44;5.88;;;5.38;;
15067;SDS011;7633;60.024;18.770;2023-04-12T11:19:42;6.13;;;5.60;;
15067;SDS011;7633;60.024;18.770;2023-04-12T11:22:09;6.55;;;5.95;;
15067;SDS011;7633;60.024;18.770;2023-04-12T11:24:38;6.28;;;5.72;;
15067;SDS011;7633;60.024;18.770;2023-04-12T11:27:04;6.47;;;5.88;;
15067;SDS011;7633;60.024;18.770;2023-04-12T11:29:30;5.82;;;5.32;;
15067;SDS011;7633;60.024;18.770;2023-04-12T11:32:01;6.50;;;5.90;;
15067;SDS011;7633;60.024;18.770;2023-04-12T11:34:30;7.03;;;6.30;;
15067;SDS011;7633;60.024;18.770;2023-04-12T11:36:56;6.43;;;5.80;;
15067;SDS011;7633;60.024;18.770;2023-04-12T11:39:22;6.78;;;6.18;;
15067;SDS011;7633;60.024;18.770;2023-04-12T11:41:49;6.00;;;5.50;;
15067;SDS011;7633;60.024;18.770;2023-04-12T11:44:14;6.57;;;6.00;;
15067;SDS011;7633;60.024;18.770;2023-04-12T11:46:46;6.05;;;5.55;;
15067;SDS011;7633;60.024;18.770;2023-04-12T11:49:19;9.27;;;6.13;;
15067;SDS011;7633;60.024;18.770;2023-04-12T11:51:44;6.00;;;5.43;;
15067;SDS011;7633;60.024;18.770;2023-04-12T11:54:10;6.20;;;5.70;;
15067;SDS011;7633;60.024;18.770;2023-04-12T11:56:38;5.68;;;5.22;;
15067;SDS011;7633;60.024;18.770;2023-04-12T11:59:04;6.63;;;6.00;;
15067;SDS011;7633;60.024;18.770;2023-04-12T12:01:30;7.75;;;5.60;;
15067;SDS011;7633;60.024;18.770;2023-04-12T12:03:56;6.15;;;5.65;;
15067;SDS011;7633;60.024;18.770;2023-04-12T12:06:22;6.00;;;5.45;;
15067;SDS011;7633;60.024;18.770;2023-04-12T12:08:51;6.25;;;5.65;;
15067;SDS011;7633;60.024;18.770;2023-04-12T12:11:18;5.70;;;5.20;;
15067;SDS011;7633;60.024;18.770;2023-04-12T12:16:09;6.65;;;5.75;;
15067;SDS011;7633;60.024;18.770;2023-04-12T12:18:38;5.55;;;5.03;;
15067;SDS011;7633;60.024;18.770;2023-04-12T12:21:06;6.15;;;5.63;;
15067;SDS011;7633;60.024;18.770;2023-04-12T12:23:32;6.55;;;5.93;;
15067;SDS011;7633;60.024;18.770;2023-04-12T12:26:01;6.60;;;5.93;;
15067;SDS011;7633;60.024;18.770;2023-04-12T12:28:35;6.55;;;5.95;;
15067;SDS011;7633;60.024;18.770;2023-04-12T12:31:05;5.72;;;5.20;;
15067;SDS011;7633;60.024;18.770;2023-04-12T12:33:38;6.10;;;5.60;;
15067;SDS011;7633;60.024;18.770;2023-04-12T12:36:04;6.25;;;5.63;;
15067;SDS011;7633;60.024;18.770;2023-04-12T12:38:33;6.20;;;5.60;;
15067;SDS011;7633;60.024;18.770;2023-04-12T12:41:12;6.15;;;5.55;;
15067;SDS011;7633;60.024;18.770;2023-04-12T12:43:42;5.95;;;5.45;;
15067;SDS011;7633;60.024;18.770;2023-04-12T12:46:09;6.75;;;6.07;;
15067;SDS011;7633;60.024;18.770;2023-04-12T12:48:41;6.30;;;5.80;;
15067;SDS011;7633;60.024;18.770;2023-04-12T12:51:10;5.97;;;5.47;;
15067;SDS011;7633;60.024;18.770;2023-04-12T12:53:36;6.15;;;5.72;;
15067;SDS011;7633;60.024;18.770;2023-04-12T12:56:01;6.35;;;5.75;;
15067;SDS011;7633;60.024;18.770;2023-04-12T12:58:27;6.32;;;5.80;;
15067;SDS011;7633;60.024;18.770;2023-04-12T13:00:53;6.22;;;5.72;;
15067;SDS011;7633;60.024;18.770;2023-04-12T13:03:19;7.15;;;6.50;;
15067;SDS011;7633;60.024;18.770;2023-04-12T13:05:45;6.25;;;5.75;;
15067;SDS011;7633;60.024;18.770;2023-04-12T13:08:10;6.53;;;5.93;;
15067;SDS011;7633;60.024;18.770;2023-04-12T13:10:36;6.95;;;6.35;;
15067;SDS011;7633;60.024;18.770;2023-04-12T13:13:01;6.82;;;6.22;;
15067;SDS011;7633;60.024;18.770;2023-04-12T13:15:27;6.05;;;5.50;;
15067;SDS011;7633;60.024;18.770;2023-04-12T13:17:52;6.80;;;6.20;;
15067;SDS011;7633;60.024;18.770;2023-04-12T13:20:18;6.70;;;6.10;;
15067;SDS011;7633;60.024;18.770;2023-04-12T13:22:43;7.32;;;6.63;;
15067;SDS011;7633;60.024;18.770;2023-04-12T13:25:09;6.18;;;5.68;;
15067;SDS011;7633;60.024;18.770;2023-04-12T13:27:35;6.78;;;6.10;;
15067;SDS011;7633;60.024;18.770;2023-04-12T13:30:02;6.90;;;6.25;;
15067;SDS011;7633;60.024;18.770;2023-04-12T13:32:30;7.03;;;5.80;;
15067;SDS011;7633;60.024;18.770;2023-04-12T13:34:55;6.18;;;5.68;;
15067;SDS011;7633;60.024;18.770;2023-04-12T13:37:21;6.95;;;6.35;;
15067;SDS011;7633;60.024;18.770;2023-04-12T13:39:46;6.70;;;6.10;;
15067;SDS011;7633;60.024;18.770;2023-04-12T13:42:11;7.68;;;7.07;;
15067;SDS011;7633;60.024;18.770;2023-04-12T13:44:37;7.05;;;6.40;;
15067;SDS011;7633;60.024;18.770;2023-04-12T13:47:02;7.43;;;6.80;;
15067;SDS011;7633;60.024;18.770;2023-04-12T13:49:28;7.68;;;6.93;;
15067;SDS011;7633;60.024;18.770;2023-04-12T13:51:54;7.43;;;6.75;;
15067;SDS011;7633;60.024;18.770;2023-04-12T13:54:19;6.88;;;6.20;;
15067;SDS011;7633;60.024;18.770;2023-04-12T13:56:45;7.03;;;6.43;;
15067;SDS011;7633;60.024;18.770;2023-04-12T13:59:10;7.80;;;7.00;;
15067;SDS011;7633;60.024;18.770;2023-04-12T14:01:36;7.22;;;6.63;;
15067;SDS011;7633;60.024;18.770;2023-04-12T14:04:02;7.88;;;7.18;;
15067;SDS011;7633;60.024;18.770;2023-04-12T14:06:28;6.97;;;6.18;;
15067;SDS011;7633;60.024;18.770;2023-04-12T14:08:54;7.90;;;7.15;;
15067;SDS011;7633;60.024;18.770;2023-04-12T14:11:21;7.53;;;6.82;;
15067;SDS011;7633;60.024;18.770;2023-04-12T14:13:46;7.93;;;7.10;;
15067;SDS011;7633;60.024;18.770;2023-04-12T14:16:12;7.43;;;6.72;;
15067;SDS011;7633;60.024;18.770;2023-04-12T14:18:37;8.00;;;7.30;;
15067;SDS011;7633;60.024;18.770;2023-04-12T14:21:03;7.28;;;6.68;;
15067;SDS011;7633;60.024;18.770;2023-04-12T14:23:28;6.85;;;6.25;;
15067;SDS011;7633;60.024;18.770;2023-04-12T14:25:53;7.22;;;6.60;;
15067;SDS011;7633;60.024;18.770;2023-04-12T14:28:19;6.70;;;6.10;;
15067;SDS011;7633;60.024;18.770;2023-04-12T14:30:55;6.53;;;5.80;;
15067;SDS011;7633;60.024;18.770;2023-04-12T14:33:21;6.72;;;6.13;;
15067;SDS011;7633;60.024;18.770;2023-04-12T14:35:46;7.10;;;6.43;;
15067;SDS011;7633;60.024;18.770;2023-04-12T14:38:12;6.88;;;6.22;;
15067;SDS011;7633;60.024;18.770;2023-04-12T14:40:39;7.15;;;6.47;;
15067;SDS011;7633;60.024;18.770;2023-04-12T14:43:06;6.88;;;6.28;;
15067;SDS011;7633;60.024;18.770;2023-04-12T14:45:35;7.22;;;6.63;;
15067;SDS011;7633;60.024;18.770;2023-04-12T14:48:01;7.47;;;6.78;;
15067;SDS011;7633;60.024;18.770;2023-04-12T14:50:26;7.20;;;6.32;;
15067;SDS011;7633;60.024;18.770;2023-04-12T14:52:53;6.03;;;5.47;;
15067;SDS011;7633;60.024;18.770;2023-04-12T14:55:18;6.30;;;5.75;;
15067;SDS011;7633;60.024;18.770;2023-04-12T14:57:45;6.05;;;5.50;;
15067;SDS011;7633;60.024;18.770;2023-04-12T15:00:12;6.82;;;5.78;;
15067;SDS011;7633;60.024;18.770;2023-04-12T15:02:41;6.22;;;5.55;;
15067;SDS011;7633;60.024;18.770;2023-04-12T15:05:09;6.38;;;5.78;;
15067;SDS011;7633;60.024;18.770;2023-04-12T15:07:35;5.90;;;5.40;;
15067;SDS011;7633;60.024;18.770;2023-04-12T15:10:00;5.70;;;5.20;;
15067;SDS011;7633;60.024;18.770;2023-04-12T15:12:27;6.10;;;5.55;;
15067;SDS011;7633;60.024;18.770;2023-04-12T15:14:53;6.18;;;5.53;;
15067;SDS011;7633;60.024;18.770;2023-04-12T15:17:18;5.43;;;4.93;;